Waterford, Minnesota
Current Conditions -  °F | °C
As of 4:34 AM on Monday 22 Dec 2014 (Local Time) from KSYN Reporting Station
Haze Haze  
Wind Chill: 31°   Ceiling: 700
Heat Index: 38°   Visibility: 5mi
Dew Point: 36°   Wind: 13mph
Humidity: 89%   Direction: 150°SSE
Pressure: 29.67"   Gusts: NA
Location:  44.4726°N, 93.1785°W
Report Text: KSYN 221034Z AUTO 15011KT 5SM BR OVC007 04/02 A2967 RMK AO2 T00360020
Loading
Personal Weather Stations






























Interactive Weather Map New forecast layout! Learn more

10-Day Weather Forecast

Advertisements
Track Severe Weather on mobile